Terminal Aerodrome Forecast
Issued by NWS

Home | Current Version | Previous Version | Text Only | Print | Product List | Glossary On
Versions: 1 2 3 4 5 6 7 8 9 10 11 12 13 14 15 16 17
507
FTUS41 KLWX 031123
TAFMTN
TAF
KMTN 031123Z 0312/0412 28009KT P6SM SCT045
     FM031400 30014G23KT P6SM SCT045
     FM032200 29009KT P6SM SCT045
     FM040000 29007KT P6SM SCT250=

USA.gov is the U.S. government's official web portal to all federal, state and local government web resources and services.